Terminal Aerodrome Forecast
Issued by NWS Austin/San Antonio, TX

Home | Current Version | Previous Version | Text Only | Print | Product List | Glossary On
Versions: 1 2 3 4 5 6 7 8 9 10 11 12 13 14 15 16 17 18 19
000
FTUS44 KEWX 031739
TAFAUS
TAF
KAUS 031739Z 0318/0424 18011KT P6SM FEW030
     FM040100 17008KT P6SM FEW050 BKN250
     FM040700 18005KT P6SM BKN012
     FM040900 19005KT 6SM BR BKN008
     FM041400 19007KT P6SM BKN015 BKN030
     FM041600 17012KT P6SM SCT035 SCT250=

USA.gov is the U.S. government's official web portal to all federal, state and local government web resources and services.